sensor_id;sensor_type;location;lat;lon;timestamp;P1;durP1;ratioP1;P2;durP2;ratioP2
26822;SDS011;14852;51.910;8.878;2024-02-15T00:02:14;5.90;;;4.80;;
26822;SDS011;14852;51.910;8.878;2024-02-15T00:04:41;4.50;;;4.10;;
26822;SDS011;14852;51.910;8.878;2024-02-15T00:07:07;5.10;;;4.32;;
26822;SDS011;14852;51.910;8.878;2024-02-15T00:09:33;4.03;;;3.63;;
26822;SDS011;14852;51.910;8.878;2024-02-15T00:11:59;5.45;;;4.38;;
26822;SDS011;14852;51.910;8.878;2024-02-15T00:14:25;6.72;;;4.20;;
26822;SDS011;14852;51.910;8.878;2024-02-15T00:16:53;4.32;;;3.78;;
26822;SDS011;14852;51.910;8.878;2024-02-15T00:19:19;4.80;;;4.35;;
26822;SDS011;14852;51.910;8.878;2024-02-15T00:21:46;4.07;;;3.67;;
26822;SDS011;14852;51.910;8.878;2024-02-15T00:24:12;4.35;;;3.95;;
26822;SDS011;14852;51.910;8.878;2024-02-15T00:26:39;5.88;;;4.43;;
26822;SDS011;14852;51.910;8.878;2024-02-15T00:29:07;4.60;;;3.90;;
26822;SDS011;14852;51.910;8.878;2024-02-15T00:31:34;4.30;;;3.90;;
26822;SDS011;14852;51.910;8.878;2024-02-15T00:34:00;3.97;;;3.58;;
26822;SDS011;14852;51.910;8.878;2024-02-15T00:36:28;3.90;;;3.60;;
26822;SDS011;14852;51.910;8.878;2024-02-15T00:38:54;3.78;;;3.47;;
26822;SDS011;14852;51.910;8.878;2024-02-15T00:41:20;3.55;;;3.25;;
26822;SDS011;14852;51.910;8.878;2024-02-15T00:43:46;3.83;;;3.47;;
26822;SDS011;14852;51.910;8.878;2024-02-15T00:46:13;3.47;;;3.17;;
26822;SDS011;14852;51.910;8.878;2024-02-15T00:48:40;4.07;;;3.65;;
26822;SDS011;14852;51.910;8.878;2024-02-15T00:51:06;4.22;;;3.83;;
26822;SDS011;14852;51.910;8.878;2024-02-15T00:53:32;4.30;;;3.30;;
26822;SDS011;14852;51.910;8.878;2024-02-15T00:55:58;4.82;;;3.85;;
26822;SDS011;14852;51.910;8.878;2024-02-15T00:58:24;4.43;;;3.72;;
26822;SDS011;14852;51.910;8.878;2024-02-15T01:00:52;3.95;;;3.65;;
26822;SDS011;14852;51.910;8.878;2024-02-15T01:03:18;3.40;;;3.10;;
26822;SDS011;14852;51.910;8.878;2024-02-15T01:05:44;3.63;;;3.33;;
26822;SDS011;14852;51.910;8.878;2024-02-15T01:08:10;4.10;;;2.80;;
26822;SDS011;14852;51.910;8.878;2024-02-15T01:10:36;3.10;;;2.72;;
26822;SDS011;14852;51.910;8.878;2024-02-15T01:13:02;3.72;;;2.58;;
26822;SDS011;14852;51.910;8.878;2024-02-15T01:15:28;3.10;;;2.80;;
26822;SDS011;14852;51.910;8.878;2024-02-15T01:17:54;4.10;;;3.10;;
26822;SDS011;14852;51.910;8.878;2024-02-15T01:20:20;3.25;;;2.95;;
26822;SDS011;14852;51.910;8.878;2024-02-15T01:22:46;3.53;;;3.22;;
26822;SDS011;14852;51.910;8.878;2024-02-15T01:25:12;3.10;;;2.80;;
26822;SDS011;14852;51.910;8.878;2024-02-15T01:27:40;2.55;;;2.35;;
26822;SDS011;14852;51.910;8.878;2024-02-15T01:30:05;3.33;;;2.22;;
26822;SDS011;14852;51.910;8.878;2024-02-15T01:32:33;3.03;;;2.72;;
26822;SDS011;14852;51.910;8.878;2024-02-15T01:34:59;2.45;;;2.25;;
26822;SDS011;14852;51.910;8.878;2024-02-15T01:37:25;2.25;;;2.05;;
26822;SDS011;14852;51.910;8.878;2024-02-15T01:39:51;1.98;;;1.77;;
26822;SDS011;14852;51.910;8.878;2024-02-15T01:42:17;2.05;;;1.85;;
26822;SDS011;14852;51.910;8.878;2024-02-15T01:44:44;2.40;;;1.70;;
26822;SDS011;14852;51.910;8.878;2024-02-15T01:47:13;2.55;;;2.15;;
26822;SDS011;14852;51.910;8.878;2024-02-15T01:49:39;1.80;;;1.70;;
26822;SDS011;14852;51.910;8.878;2024-02-15T01:52:06;2.30;;;2.10;;
26822;SDS011;14852;51.910;8.878;2024-02-15T01:54:34;2.40;;;2.20;;
26822;SDS011;14852;51.910;8.878;2024-02-15T01:57:03;2.60;;;2.40;;
26822;SDS011;14852;51.910;8.878;2024-02-15T01:59:30;2.50;;;2.30;;
26822;SDS011;14852;51.910;8.878;2024-02-15T02:01:56;3.72;;;2.80;;
26822;SDS011;14852;51.910;8.878;2024-02-15T02:04:22;2.30;;;2.10;;
26822;SDS011;14852;51.910;8.878;2024-02-15T02:06:48;2.28;;;2.08;;
26822;SDS011;14852;51.910;8.878;2024-02-15T02:09:14;2.40;;;2.20;;
26822;SDS011;14852;51.910;8.878;2024-02-15T02:11:49;2.45;;;2.25;;
26822;SDS011;14852;51.910;8.878;2024-02-15T02:14:15;2.20;;;2.00;;
26822;SDS011;14852;51.910;8.878;2024-02-15T02:16:42;1.83;;;1.73;;
26822;SDS011;14852;51.910;8.878;2024-02-15T02:19:08;2.40;;;1.63;;
26822;SDS011;14852;51.910;8.878;2024-02-15T02:21:36;1.67;;;1.58;;
26822;SDS011;14852;51.910;8.878;2024-02-15T02:24:06;2.13;;;1.92;;
26822;SDS011;14852;51.910;8.878;2024-02-15T02:26:46;2.00;;;1.60;;
26822;SDS011;14852;51.910;8.878;2024-02-15T02:29:12;2.35;;;2.15;;
26822;SDS011;14852;51.910;8.878;2024-02-15T02:31:40;2.50;;;2.30;;
26822;SDS011;14852;51.910;8.878;2024-02-15T02:34:07;2.28;;;2.08;;
26822;SDS011;14852;51.910;8.878;2024-02-15T02:36:33;3.40;;;3.10;;
26822;SDS011;14852;51.910;8.878;2024-02-15T02:38:59;3.20;;;2.90;;
26822;SDS011;14852;51.910;8.878;2024-02-15T02:41:29;3.05;;;2.75;;
26822;SDS011;14852;51.910;8.878;2024-02-15T02:43:57;2.92;;;2.72;;
26822;SDS011;14852;51.910;8.878;2024-02-15T02:46:23;3.35;;;3.05;;
26822;SDS011;14852;51.910;8.878;2024-02-15T02:48:49;3.92;;;3.63;;
26822;SDS011;14852;51.910;8.878;2024-02-15T02:51:15;3.65;;;3.35;;
26822;SDS011;14852;51.910;8.878;2024-02-15T02:53:41;3.58;;;3.28;;
26822;SDS011;14852;51.910;8.878;2024-02-15T02:56:06;3.80;;;3.38;;
26822;SDS011;14852;51.910;8.878;2024-02-15T02:58:34;3.90;;;3.40;;
26822;SDS011;14852;51.910;8.878;2024-02-15T03:01:00;5.25;;;4.10;;
26822;SDS011;14852;51.910;8.878;2024-02-15T03:03:26;4.18;;;3.78;;
26822;SDS011;14852;51.910;8.878;2024-02-15T03:05:52;4.50;;;4.07;;
26822;SDS011;14852;51.910;8.878;2024-02-15T03:08:19;3.95;;;3.55;;
26822;SDS011;14852;51.910;8.878;2024-02-15T03:10:45;3.10;;;2.80;;
26822;SDS011;14852;51.910;8.878;2024-02-15T03:13:11;3.22;;;2.92;;
26822;SDS011;14852;51.910;8.878;2024-02-15T03:15:37;3.28;;;2.97;;
26822;SDS011;14852;51.910;8.878;2024-02-15T03:18:03;3.03;;;2.72;;
26822;SDS011;14852;51.910;8.878;2024-02-15T03:20:32;4.03;;;2.97;;
26822;SDS011;14852;51.910;8.878;2024-02-15T03:25:34;2.72;;;2.53;;
26822;SDS011;14852;51.910;8.878;2024-02-15T03:28:00;3.10;;;2.28;;
26822;SDS011;14852;51.910;8.878;2024-02-15T03:30:30;2.47;;;2.28;;
26822;SDS011;14852;51.910;8.878;2024-02-15T03:32:58;3.00;;;2.80;;
26822;SDS011;14852;51.910;8.878;2024-02-15T03:35:25;3.45;;;3.15;;
26822;SDS011;14852;51.910;8.878;2024-02-15T03:37:53;4.40;;;4.00;;
26822;SDS011;14852;51.910;8.878;2024-02-15T03:40:19;3.92;;;3.53;;
26822;SDS011;14852;51.910;8.878;2024-02-15T03:42:47;5.13;;;4.60;;
26822;SDS011;14852;51.910;8.878;2024-02-15T03:45:13;5.28;;;4.78;;
26822;SDS011;14852;51.910;8.878;2024-02-15T03:47:38;4.95;;;4.55;;
26822;SDS011;14852;51.910;8.878;2024-02-15T03:50:05;5.13;;;4.68;;
26822;SDS011;14852;51.910;8.878;2024-02-15T03:52:34;5.13;;;4.63;;
26822;SDS011;14852;51.910;8.878;2024-02-15T03:55:01;5.72;;;4.97;;
26822;SDS011;14852;51.910;8.878;2024-02-15T03:57:27;5.93;;;5.32;;
26822;SDS011;14852;51.910;8.878;2024-02-15T03:59:54;6.47;;;5.88;;
26822;SDS011;14852;51.910;8.878;2024-02-15T04:02:22;6.97;;;6.25;;
26822;SDS011;14852;51.910;8.878;2024-02-15T04:04:54;6.90;;;6.20;;
26822;SDS011;14852;51.910;8.878;2024-02-15T04:07:21;7.18;;;6.47;;
26822;SDS011;14852;51.910;8.878;2024-02-15T04:09:49;7.45;;;6.57;;
26822;SDS011;14852;51.910;8.878;2024-02-15T04:12:15;8.15;;;6.55;;
26822;SDS011;14852;51.910;8.878;2024-02-15T04:14:42;7.10;;;5.82;;
26822;SDS011;14852;51.910;8.878;2024-02-15T04:17:10;7.55;;;6.68;;
26822;SDS011;14852;51.910;8.878;2024-02-15T04:19:39;6.95;;;6.20;;
26822;SDS011;14852;51.910;8.878;2024-02-15T04:22:05;6.90;;;6.20;;
26822;SDS011;14852;51.910;8.878;2024-02-15T04:24:32;6.75;;;6.05;;
26822;SDS011;14852;51.910;8.878;2024-02-15T04:26:59;5.75;;;5.20;;
26822;SDS011;14852;51.910;8.878;2024-02-15T04:29:25;6.13;;;5.53;;
26822;SDS011;14852;51.910;8.878;2024-02-15T04:31:51;6.53;;;5.53;;
26822;SDS011;14852;51.910;8.878;2024-02-15T04:34:19;7.05;;;6.35;;
26822;SDS011;14852;51.910;8.878;2024-02-15T04:36:45;6.63;;;5.97;;
26822;SDS011;14852;51.910;8.878;2024-02-15T04:39:19;5.68;;;5.15;;
26822;SDS011;14852;51.910;8.878;2024-02-15T04:41:53;6.72;;;5.18;;
26822;SDS011;14852;51.910;8.878;2024-02-15T04:44:20;4.78;;;4.28;;
26822;SDS011;14852;51.910;8.878;2024-02-15T04:46:46;4.65;;;4.25;;
26822;SDS011;14852;51.910;8.878;2024-02-15T04:49:14;4.88;;;4.22;;
26822;SDS011;14852;51.910;8.878;2024-02-15T04:51:40;4.65;;;4.25;;
26822;SDS011;14852;51.910;8.878;2024-02-15T04:54:10;5.78;;;4.55;;
26822;SDS011;14852;51.910;8.878;2024-02-15T04:56:39;5.10;;;4.40;;
26822;SDS011;14852;51.910;8.878;2024-02-15T04:59:06;4.20;;;3.80;;
26822;SDS011;14852;51.910;8.878;2024-02-15T05:01:43;4.28;;;3.88;;
26822;SDS011;14852;51.910;8.878;2024-02-15T05:04:10;4.55;;;3.75;;
26822;SDS011;14852;51.910;8.878;2024-02-15T05:06:37;3.35;;;3.05;;
26822;SDS011;14852;51.910;8.878;2024-02-15T05:09:03;6.78;;;4.22;;
26822;SDS011;14852;51.910;8.878;2024-02-15T05:11:33;4.70;;;4.10;;
26822;SDS011;14852;51.910;8.878;2024-02-15T05:14:02;4.75;;;4.22;;
26822;SDS011;14852;51.910;8.878;2024-02-15T05:16:31;4.38;;;3.97;;
26822;SDS011;14852;51.910;8.878;2024-02-15T05:19:07;5.93;;;3.58;;
26822;SDS011;14852;51.910;8.878;2024-02-15T05:21:34;3.95;;;3.53;;
26822;SDS011;14852;51.910;8.878;2024-02-15T05:23:59;5.25;;;4.22;;
26822;SDS011;14852;51.910;8.878;2024-02-15T05:26:25;7.50;;;3.75;;
26822;SDS011;14852;51.910;8.878;2024-02-15T05:28:51;4.90;;;3.60;;
26822;SDS011;14852;51.910;8.878;2024-02-15T05:31:17;4.20;;;3.80;;
26822;SDS011;14852;51.910;8.878;2024-02-15T05:33:46;3.92;;;3.47;;
26822;SDS011;14852;51.910;8.878;2024-02-15T05:36:16;5.45;;;3.25;;
26822;SDS011;14852;51.910;8.878;2024-02-15T05:38:46;3.95;;;3.10;;
26822;SDS011;14852;51.910;8.878;2024-02-15T05:41:14;4.25;;;3.85;;
26822;SDS011;14852;51.910;8.878;2024-02-15T05:43:40;4.80;;;3.28;;
26822;SDS011;14852;51.910;8.878;2024-02-15T05:46:09;5.82;;;4.22;;
26822;SDS011;14852;51.910;8.878;2024-02-15T05:48:38;4.15;;;3.63;;
26822;SDS011;14852;51.910;8.878;2024-02-15T05:51:04;5.07;;;3.10;;
26822;SDS011;14852;51.910;8.878;2024-02-15T05:53:34;4.85;;;3.00;;
26822;SDS011;14852;51.910;8.878;2024-02-15T05:56:07;4.25;;;3.35;;
26822;SDS011;14852;51.910;8.878;2024-02-15T05:58:34;5.00;;;3.30;;
26822;SDS011;14852;51.910;8.878;2024-02-15T06:01:01;4.45;;;3.25;;
26822;SDS011;14852;51.910;8.878;2024-02-15T06:03:32;5.90;;;3.17;;
26822;SDS011;14852;51.910;8.878;2024-02-15T06:05:59;3.88;;;3.20;;
26822;SDS011;14852;51.910;8.878;2024-02-15T06:08:27;5.13;;;3.63;;
26822;SDS011;14852;51.910;8.878;2024-02-15T06:10:55;4.57;;;3.30;;
26822;SDS011;14852;51.910;8.878;2024-02-15T06:13:24;5.93;;;2.90;;
26822;SDS011;14852;51.910;8.878;2024-02-15T06:15:51;4.40;;;3.08;;
26822;SDS011;14852;51.910;8.878;2024-02-15T06:18:23;4.00;;;3.05;;
26822;SDS011;14852;51.910;8.878;2024-02-15T06:20:57;4.88;;;3.35;;
26822;SDS011;14852;51.910;8.878;2024-02-15T06:23:25;3.15;;;2.85;;
26822;SDS011;14852;51.910;8.878;2024-02-15T06:25:55;3.85;;;3.45;;
26822;SDS011;14852;51.910;8.878;2024-02-15T06:28:23;5.03;;;3.55;;
26822;SDS011;14852;51.910;8.878;2024-02-15T06:31:08;4.88;;;3.10;;
26822;SDS011;14852;51.910;8.878;2024-02-15T06:33:53;3.97;;;3.15;;
26822;SDS011;14852;51.910;8.878;2024-02-15T06:36:49;3.33;;;3.00;;
26822;SDS011;14852;51.910;8.878;2024-02-15T06:39:36;5.07;;;3.13;;
26822;SDS011;14852;51.910;8.878;2024-02-15T06:42:03;5.63;;;2.40;;
26822;SDS011;14852;51.910;8.878;2024-02-15T06:44:29;4.20;;;3.17;;
26822;SDS011;14852;51.910;8.878;2024-02-15T06:46:55;3.65;;;2.83;;
26822;SDS011;14852;51.910;8.878;2024-02-15T06:49:21;3.35;;;2.40;;
26822;SDS011;14852;51.910;8.878;2024-02-15T06:51:49;3.88;;;2.60;;
26822;SDS011;14852;51.910;8.878;2024-02-15T06:54:16;4.85;;;2.88;;
26822;SDS011;14852;51.910;8.878;2024-02-15T06:56:45;3.20;;;2.85;;
26822;SDS011;14852;51.910;8.878;2024-02-15T06:59:11;4.13;;;2.90;;
26822;SDS011;14852;51.910;8.878;2024-02-15T07:01:43;3.50;;;2.58;;
26822;SDS011;14852;51.910;8.878;2024-02-15T07:04:09;4.88;;;3.00;;
26822;SDS011;14852;51.910;8.878;2024-02-15T07:06:36;5.63;;;2.85;;
26822;SDS011;14852;51.910;8.878;2024-02-15T07:09:03;4.47;;;3.00;;
26822;SDS011;14852;51.910;8.878;2024-02-15T07:11:32;4.57;;;3.15;;
26822;SDS011;14852;51.910;8.878;2024-02-15T07:14:01;4.72;;;3.03;;
26822;SDS011;14852;51.910;8.878;2024-02-15T07:16:29;3.17;;;2.88;;
26822;SDS011;14852;51.910;8.878;2024-02-15T07:18:55;4.55;;;3.05;;
26822;SDS011;14852;51.910;8.878;2024-02-15T07:21:21;3.00;;;2.47;;
26822;SDS011;14852;51.910;8.878;2024-02-15T07:23:52;3.80;;;2.33;;
26822;SDS011;14852;51.910;8.878;2024-02-15T07:26:23;3.80;;;3.05;;
26822;SDS011;14852;51.910;8.878;2024-02-15T07:28:50;3.40;;;2.50;;
26822;SDS011;14852;51.910;8.878;2024-02-15T07:31:18;3.28;;;2.55;;
26822;SDS011;14852;51.910;8.878;2024-02-15T07:33:48;4.75;;;2.85;;
26822;SDS011;14852;51.910;8.878;2024-02-15T07:36:19;6.13;;;3.42;;
26822;SDS011;14852;51.910;8.878;2024-02-15T07:38:50;5.57;;;3.30;;
26822;SDS011;14852;51.910;8.878;2024-02-15T07:41:22;5.50;;;3.55;;
26822;SDS011;14852;51.910;8.878;2024-02-15T07:43:49;4.10;;;3.70;;
26822;SDS011;14852;51.910;8.878;2024-02-15T07:46:15;5.38;;;3.75;;
26822;SDS011;14852;51.910;8.878;2024-02-15T07:48:45;5.22;;;3.72;;
26822;SDS011;14852;51.910;8.878;2024-02-15T07:51:15;4.82;;;3.58;;
26822;SDS011;14852;51.910;8.878;2024-02-15T07:53:43;5.05;;;3.40;;
26822;SDS011;14852;51.910;8.878;2024-02-15T07:56:09;4.47;;;3.65;;
26822;SDS011;14852;51.910;8.878;2024-02-15T07:58:39;6.00;;;3.88;;
26822;SDS011;14852;51.910;8.878;2024-02-15T08:01:06;4.15;;;3.67;;
26822;SDS011;14852;51.910;8.878;2024-02-15T08:03:34;3.50;;;3.20;;
26822;SDS011;14852;51.910;8.878;2024-02-15T08:06:01;6.70;;;4.30;;
26822;SDS011;14852;51.910;8.878;2024-02-15T08:08:31;5.70;;;4.00;;
26822;SDS011;14852;51.910;8.878;2024-02-15T08:11:01;4.63;;;3.60;;
26822;SDS011;14852;51.910;8.878;2024-02-15T08:13:28;4.78;;;3.55;;
26822;SDS011;14852;51.910;8.878;2024-02-15T08:15:54;4.63;;;3.55;;
26822;SDS011;14852;51.910;8.878;2024-02-15T08:18:21;4.80;;;3.13;;
26822;SDS011;14852;51.910;8.878;2024-02-15T08:20:47;5.43;;;3.25;;
26822;SDS011;14852;51.910;8.878;2024-02-15T08:23:13;3.92;;;3.15;;
26822;SDS011;14852;51.910;8.878;2024-02-15T08:25:38;3.90;;;3.20;;
26822;SDS011;14852;51.910;8.878;2024-02-15T08:28:07;4.18;;;2.75;;
26822;SDS011;14852;51.910;8.878;2024-02-15T08:30:33;3.78;;;2.65;;
26822;SDS011;14852;51.910;8.878;2024-02-15T08:32:58;5.68;;;2.80;;
26822;SDS011;14852;51.910;8.878;2024-02-15T08:35:24;3.75;;;2.45;;
26822;SDS011;14852;51.910;8.878;2024-02-15T08:37:50;3.83;;;2.30;;
26822;SDS011;14852;51.910;8.878;2024-02-15T08:40:17;5.25;;;2.08;;
26822;SDS011;14852;51.910;8.878;2024-02-15T08:42:49;5.75;;;2.53;;
26822;SDS011;14852;51.910;8.878;2024-02-15T08:45:15;4.85;;;2.70;;
26822;SDS011;14852;51.910;8.878;2024-02-15T08:47:42;5.15;;;2.28;;
26822;SDS011;14852;51.910;8.878;2024-02-15T08:50:09;4.05;;;2.55;;
26822;SDS011;14852;51.910;8.878;2024-02-15T08:52:37;4.53;;;2.13;;
26822;SDS011;14852;51.910;8.878;2024-02-15T08:55:07;5.15;;;2.67;;
26822;SDS011;14852;51.910;8.878;2024-02-15T08:57:35;5.70;;;3.33;;
26822;SDS011;14852;51.910;8.878;2024-02-15T09:00:03;4.60;;;2.85;;
26822;SDS011;14852;51.910;8.878;2024-02-15T09:02:48;4.55;;;3.45;;
26822;SDS011;14852;51.910;8.878;2024-02-15T09:05:14;5.70;;;3.20;;
26822;SDS011;14852;51.910;8.878;2024-02-15T09:07:41;4.00;;;2.75;;
26822;SDS011;14852;51.910;8.878;2024-02-15T09:10:08;3.85;;;2.20;;
26822;SDS011;14852;51.910;8.878;2024-02-15T09:12:38;3.72;;;2.30;;
26822;SDS011;14852;51.910;8.878;2024-02-15T09:15:09;8.13;;;3.08;;
26822;SDS011;14852;51.910;8.878;2024-02-15T09:17:38;2.60;;;2.03;;
26822;SDS011;14852;51.910;8.878;2024-02-15T09:22:54;6.45;;;2.55;;
26822;SDS011;14852;51.910;8.878;2024-02-15T09:25:21;5.72;;;2.70;;
26822;SDS011;14852;51.910;8.878;2024-02-15T09:27:51;3.92;;;2.90;;
26822;SDS011;14852;51.910;8.878;2024-02-15T09:30:19;2.33;;;2.05;;
26822;SDS011;14852;51.910;8.878;2024-02-15T09:32:45;6.13;;;2.28;;
26822;SDS011;14852;51.910;8.878;2024-02-15T09:35:11;3.85;;;2.30;;
26822;SDS011;14852;51.910;8.878;2024-02-15T09:37:38;2.00;;;1.80;;
26822;SDS011;14852;51.910;8.878;2024-02-15T09:40:16;2.78;;;1.77;;
26822;SDS011;14852;51.910;8.878;2024-02-15T09:42:43;3.10;;;2.00;;
26822;SDS011;14852;51.910;8.878;2024-02-15T09:45:10;2.72;;;2.15;;
26822;SDS011;14852;51.910;8.878;2024-02-15T09:47:38;5.63;;;2.78;;
26822;SDS011;14852;51.910;8.878;2024-02-15T09:55:11;2.63;;;1.92;;
26822;SDS011;14852;51.910;8.878;2024-02-15T09:57:38;4.22;;;2.30;;
26822;SDS011;14852;51.910;8.878;2024-02-15T10:00:06;2.80;;;2.10;;
26822;SDS011;14852;51.910;8.878;2024-02-15T10:02:33;6.13;;;2.13;;
26822;SDS011;14852;51.910;8.878;2024-02-15T10:05:01;2.10;;;1.70;;
26822;SDS011;14852;51.910;8.878;2024-02-15T10:07:27;4.90;;;2.38;;
26822;SDS011;14852;51.910;8.878;2024-02-15T10:09:54;4.30;;;2.47;;
26822;SDS011;14852;51.910;8.878;2024-02-15T10:12:20;2.63;;;2.05;;
26822;SDS011;14852;51.910;8.878;2024-02-15T10:14:49;5.38;;;2.30;;
26822;SDS011;14852;51.910;8.878;2024-02-15T10:17:18;3.38;;;2.42;;
26822;SDS011;14852;51.910;8.878;2024-02-15T10:19:44;5.13;;;2.70;;
26822;SDS011;14852;51.910;8.878;2024-02-15T10:22:30;4.70;;;2.60;;
26822;SDS011;14852;51.910;8.878;2024-02-15T10:25:10;4.00;;;2.00;;
26822;SDS011;14852;51.910;8.878;2024-02-15T10:27:42;3.15;;;1.85;;
26822;SDS011;14852;51.910;8.878;2024-02-15T10:30:14;3.15;;;1.98;;
26822;SDS011;14852;51.910;8.878;2024-02-15T10:32:45;2.22;;;1.73;;
26822;SDS011;14852;51.910;8.878;2024-02-15T10:35:18;2.90;;;1.67;;
26822;SDS011;14852;51.910;8.878;2024-02-15T10:37:48;4.53;;;1.83;;
26822;SDS011;14852;51.910;8.878;2024-02-15T10:40:18;3.30;;;2.17;;
26822;SDS011;14852;51.910;8.878;2024-02-15T10:42:48;3.90;;;2.45;;
26822;SDS011;14852;51.910;8.878;2024-02-15T10:45:16;4.78;;;2.00;;
26822;SDS011;14852;51.910;8.878;2024-02-15T10:47:44;3.28;;;1.90;;
26822;SDS011;14852;51.910;8.878;2024-02-15T10:50:12;3.25;;;1.63;;
26822;SDS011;14852;51.910;8.878;2024-02-15T10:52:44;3.92;;;1.75;;
26822;SDS011;14852;51.910;8.878;2024-02-15T10:55:22;2.55;;;1.67;;
26822;SDS011;14852;51.910;8.878;2024-02-15T10:57:53;3.75;;;1.90;;
26822;SDS011;14852;51.910;8.878;2024-02-15T11:00:24;2.65;;;1.95;;
26822;SDS011;14852;51.910;8.878;2024-02-15T11:03:03;2.22;;;1.75;;
26822;SDS011;14852;51.910;8.878;2024-02-15T11:05:36;4.03;;;1.95;;
26822;SDS011;14852;51.910;8.878;2024-02-15T11:08:05;3.05;;;1.80;;
26822;SDS011;14852;51.910;8.878;2024-02-15T11:10:36;1.92;;;1.70;;
26822;SDS011;14852;51.910;8.878;2024-02-15T11:13:03;4.75;;;2.05;;
26822;SDS011;14852;51.910;8.878;2024-02-15T11:18:06;3.65;;;2.03;;
26822;SDS011;14852;51.910;8.878;2024-02-15T11:22:57;2.70;;;1.90;;
26822;SDS011;14852;51.910;8.878;2024-02-15T11:25:32;3.05;;;1.75;;
26822;SDS011;14852;51.910;8.878;2024-02-15T11:30:48;2.28;;;2.00;;
26822;SDS011;14852;51.910;8.878;2024-02-15T11:33:33;4.25;;;1.58;;
26822;SDS011;14852;51.910;8.878;2024-02-15T11:38:35;2.08;;;1.77;;
26822;SDS011;14852;51.910;8.878;2024-02-15T11:41:02;8.98;;;1.90;;
26822;SDS011;14852;51.910;8.878;2024-02-15T11:46:26;2.22;;;1.67;;
26822;SDS011;14852;51.910;8.878;2024-02-15T11:48:57;1.80;;;1.70;;
26822;SDS011;14852;51.910;8.878;2024-02-15T11:51:42;2.60;;;2.00;;
26822;SDS011;14852;51.910;8.878;2024-02-15T11:54:09;2.72;;;1.80;;
26822;SDS011;14852;51.910;8.878;2024-02-15T11:59:12;2.67;;;1.80;;
26822;SDS011;14852;51.910;8.878;2024-02-15T12:01:53;3.58;;;1.50;;
26822;SDS011;14852;51.910;8.878;2024-02-15T12:04:42;3.10;;;1.88;;
26822;SDS011;14852;51.910;8.878;2024-02-15T12:07:28;1.80;;;1.42;;
26822;SDS011;14852;51.910;8.878;2024-02-15T12:10:16;1.75;;;1.50;;
26822;SDS011;14852;51.910;8.878;2024-02-15T12:13:01;2.58;;;1.50;;
26822;SDS011;14852;51.910;8.878;2024-02-15T12:15:58;2.28;;;1.52;;
26822;SDS011;14852;51.910;8.878;2024-02-15T12:18:43;2.50;;;1.52;;
26822;SDS011;14852;51.910;8.878;2024-02-15T12:21:13;2.65;;;2.00;;
26822;SDS011;14852;51.910;8.878;2024-02-15T12:23:44;1.90;;;1.50;;
26822;SDS011;14852;51.910;8.878;2024-02-15T12:26:10;3.30;;;1.70;;
26822;SDS011;14852;51.910;8.878;2024-02-15T12:28:39;1.65;;;1.35;;
26822;SDS011;14852;51.910;8.878;2024-02-15T12:31:08;2.08;;;1.50;;
26822;SDS011;14852;51.910;8.878;2024-02-15T12:33:35;2.40;;;1.67;;
26822;SDS011;14852;51.910;8.878;2024-02-15T12:36:05;2.72;;;1.63;;
26822;SDS011;14852;51.910;8.878;2024-02-15T12:38:32;5.50;;;2.15;;
26822;SDS011;14852;51.910;8.878;2024-02-15T12:40:59;3.20;;;1.60;;
26822;SDS011;14852;51.910;8.878;2024-02-15T12:43:27;2.17;;;1.80;;
26822;SDS011;14852;51.910;8.878;2024-02-15T12:45:53;3.38;;;1.85;;
26822;SDS011;14852;51.910;8.878;2024-02-15T12:48:22;3.60;;;1.67;;
26822;SDS011;14852;51.910;8.878;2024-02-15T12:50:47;3.63;;;1.70;;
26822;SDS011;14852;51.910;8.878;2024-02-15T12:53:20;4.50;;;1.83;;
26822;SDS011;14852;51.910;8.878;2024-02-15T12:55:52;3.22;;;2.03;;
26822;SDS011;14852;51.910;8.878;2024-02-15T12:58:22;2.30;;;1.67;;
26822;SDS011;14852;51.910;8.878;2024-02-15T13:00:54;3.10;;;1.88;;
26822;SDS011;14852;51.910;8.878;2024-02-15T13:03:23;5.13;;;2.07;;
26822;SDS011;14852;51.910;8.878;2024-02-15T13:05:49;1.60;;;1.45;;
26822;SDS011;14852;51.910;8.878;2024-02-15T13:08:15;4.07;;;1.80;;
26822;SDS011;14852;51.910;8.878;2024-02-15T13:10:43;1.77;;;1.45;;
26822;SDS011;14852;51.910;8.878;2024-02-15T13:13:09;2.42;;;1.60;;
26822;SDS011;14852;51.910;8.878;2024-02-15T13:15:34;3.05;;;2.00;;
26822;SDS011;14852;51.910;8.878;2024-02-15T13:18:02;4.35;;;1.70;;
26822;SDS011;14852;51.910;8.878;2024-02-15T13:20:29;2.42;;;1.70;;
26822;SDS011;14852;51.910;8.878;2024-02-15T13:22:59;2.30;;;1.40;;
26822;SDS011;14852;51.910;8.878;2024-02-15T13:25:43;2.03;;;1.50;;
26822;SDS011;14852;51.910;8.878;2024-02-15T13:28:09;3.00;;;1.73;;
26822;SDS011;14852;51.910;8.878;2024-02-15T13:30:38;2.70;;;2.17;;
26822;SDS011;14852;51.910;8.878;2024-02-15T13:33:04;4.93;;;2.08;;
26822;SDS011;14852;51.910;8.878;2024-02-15T13:35:31;1.92;;;1.50;;
26822;SDS011;14852;51.910;8.878;2024-02-15T13:37:57;2.67;;;1.98;;
26822;SDS011;14852;51.910;8.878;2024-02-15T13:40:24;2.28;;;1.60;;
26822;SDS011;14852;51.910;8.878;2024-02-15T13:42:55;4.68;;;1.77;;
26822;SDS011;14852;51.910;8.878;2024-02-15T13:45:24;2.33;;;1.80;;
26822;SDS011;14852;51.910;8.878;2024-02-15T13:48:00;3.92;;;2.35;;
26822;SDS011;14852;51.910;8.878;2024-02-15T13:50:28;1.63;;;1.52;;
26822;SDS011;14852;51.910;8.878;2024-02-15T13:52:55;6.20;;;1.67;;
26822;SDS011;14852;51.910;8.878;2024-02-15T13:55:22;2.20;;;1.60;;
26822;SDS011;14852;51.910;8.878;2024-02-15T13:57:50;3.72;;;1.90;;
26822;SDS011;14852;51.910;8.878;2024-02-15T14:00:17;2.92;;;1.63;;
26822;SDS011;14852;51.910;8.878;2024-02-15T14:02:50;3.13;;;1.58;;
26822;SDS011;14852;51.910;8.878;2024-02-15T14:05:18;2.60;;;1.60;;
26822;SDS011;14852;51.910;8.878;2024-02-15T14:07:48;1.70;;;1.33;;
26822;SDS011;14852;51.910;8.878;2024-02-15T14:10:20;3.38;;;1.70;;
26822;SDS011;14852;51.910;8.878;2024-02-15T14:12:47;3.70;;;2.17;;
26822;SDS011;14852;51.910;8.878;2024-02-15T14:15:16;2.28;;;1.60;;
26822;SDS011;14852;51.910;8.878;2024-02-15T14:17:43;2.50;;;1.50;;
26822;SDS011;14852;51.910;8.878;2024-02-15T14:20:09;4.38;;;1.70;;
26822;SDS011;14852;51.910;8.878;2024-02-15T14:22:43;2.15;;;1.92;;
26822;SDS011;14852;51.910;8.878;2024-02-15T14:25:14;3.97;;;1.80;;
26822;SDS011;14852;51.910;8.878;2024-02-15T14:27:43;2.13;;;1.73;;
26822;SDS011;14852;51.910;8.878;2024-02-15T14:30:09;4.88;;;2.13;;
26822;SDS011;14852;51.910;8.878;2024-02-15T14:32:53;5.10;;;1.98;;
26822;SDS011;14852;51.910;8.878;2024-02-15T14:35:25;3.25;;;1.67;;
26822;SDS011;14852;51.910;8.878;2024-02-15T14:37:56;2.35;;;1.60;;
26822;SDS011;14852;51.910;8.878;2024-02-15T14:40:23;4.55;;;2.70;;
26822;SDS011;14852;51.910;8.878;2024-02-15T14:42:48;3.38;;;2.20;;
26822;SDS011;14852;51.910;8.878;2024-02-15T14:45:14;3.88;;;2.28;;
26822;SDS011;14852;51.910;8.878;2024-02-15T14:47:40;6.35;;;2.40;;
26822;SDS011;14852;51.910;8.878;2024-02-15T14:50:07;4.03;;;2.10;;
26822;SDS011;14852;51.910;8.878;2024-02-15T14:52:37;2.47;;;2.10;;
26822;SDS011;14852;51.910;8.878;2024-02-15T14:55:03;6.10;;;2.47;;
26822;SDS011;14852;51.910;8.878;2024-02-15T14:57:33;3.35;;;2.10;;
26822;SDS011;14852;51.910;8.878;2024-02-15T15:00:01;4.38;;;2.33;;
26822;SDS011;14852;51.910;8.878;2024-02-15T15:02:29;3.15;;;2.22;;
26822;SDS011;14852;51.910;8.878;2024-02-15T15:04:55;2.85;;;2.28;;
26822;SDS011;14852;51.910;8.878;2024-02-15T15:07:39;4.45;;;2.55;;
26822;SDS011;14852;51.910;8.878;2024-02-15T15:10:25;2.50;;;1.98;;
26822;SDS011;14852;51.910;8.878;2024-02-15T15:13:09;3.47;;;1.98;;
26822;SDS011;14852;51.910;8.878;2024-02-15T15:15:35;2.85;;;2.20;;
26822;SDS011;14852;51.910;8.878;2024-02-15T15:18:03;5.03;;;2.38;;
26822;SDS011;14852;51.910;8.878;2024-02-15T15:20:29;4.13;;;2.67;;
26822;SDS011;14852;51.910;8.878;2024-02-15T15:22:58;3.28;;;2.80;;
26822;SDS011;14852;51.910;8.878;2024-02-15T15:25:25;2.83;;;2.22;;